createdAt,value
2022-10-19T00:01:06.624Z,102280.56
2022-10-19T00:03:34.403Z,102289.19
2022-10-19T00:06:09.821Z,102283.44
2022-10-19T00:08:36.202Z,102283.13
2022-10-19T00:11:02.642Z,102289.19
2022-10-19T00:13:29.027Z,102283.59
2022-10-19T00:15:55.438Z,102274.50
2022-10-19T00:18:22.298Z,102280.25
2022-10-19T00:20:48.683Z,102275.75
2022-10-19T00:23:15.238Z,102272.88
2022-10-19T00:25:41.645Z,102268.75
2022-10-19T00:28:08.223Z,102277.84
2022-10-19T00:30:38.314Z,102275.75
2022-10-19T00:33:04.799Z,102275.13
2022-10-19T00:35:31.195Z,102294.25
2022-10-19T00:37:57.638Z,102293.13
2022-10-19T00:40:24.091Z,102298.41
2022-10-19T00:42:55.134Z,102287.41
2022-10-19T00:45:21.718Z,102278.78
2022-10-19T00:47:48.526Z,102289.78
2022-10-19T00:50:15.647Z,102301.28
2022-10-19T00:52:42.407Z,102296.00
2022-10-19T00:55:10.979Z,102296.00
2022-10-19T00:57:37.762Z,102298.09
2022-10-19T01:00:07.233Z,102306.72
2022-10-19T01:02:34.294Z,102310.84
2022-10-19T01:05:01.260Z,102305.09
2022-10-19T01:07:28.304Z,102307.97
2022-10-19T01:09:55.826Z,102314.50
2022-10-19T01:12:43.603Z,102310.53
2022-10-19T01:15:26.414Z,102301.09
2022-10-19T01:18:01.131Z,102294.56
2022-10-19T01:20:54.684Z,102294.69
2022-10-19T01:24:03.487Z,102286.88
2022-10-19T01:26:53.296Z,102283.69
2022-10-19T01:29:57.378Z,102294.03
2022-10-19T01:32:32.480Z,102295.50
2022-10-19T01:35:20.148Z,102298.03
2022-10-19T01:37:52.700Z,102285.75
2022-10-19T01:40:37.750Z,102292.78
2022-10-19T01:43:26.116Z,102289.44
2022-10-19T01:45:56.565Z,102287.03
2022-10-19T01:48:30.599Z,102289.09
2022-10-19T01:51:05.183Z,102296.44
2022-10-19T01:53:36.514Z,102291.00
2022-10-19T01:56:05.215Z,102283.69
2022-10-19T01:58:35.576Z,102284.94
2022-10-19T02:01:05.506Z,102283.69
2022-10-19T02:03:34.387Z,102285.75
2022-10-19T02:06:04.959Z,102287.81
2022-10-19T02:08:41.500Z,102290.69
2022-10-19T02:11:08.225Z,102281.75
2022-10-19T02:13:36.178Z,102289.91
2022-10-19T02:16:07.924Z,102285.41
2022-10-19T02:18:39.574Z,102283.38
2022-10-19T02:21:07.136Z,102291.16
2022-10-19T02:23:34.131Z,102283.38
2022-10-19T02:26:00.737Z,102283.38
2022-10-19T02:28:28.355Z,102286.72
2022-10-19T02:30:54.987Z,102276.00
2022-10-19T02:33:21.665Z,102282.53
2022-10-19T02:35:48.307Z,102291.63
2022-10-19T02:38:18.688Z,102298.19
2022-10-19T02:40:54.841Z,102282.22
2022-10-19T02:43:24.506Z,102290.03
2022-10-19T02:46:02.671Z,102288.44
2022-10-19T02:48:32.717Z,102294.97
2022-10-19T02:50:59.285Z,102290.03
2022-10-19T02:53:25.822Z,102289.38
2022-10-19T02:55:52.606Z,102293.38
2022-10-19T02:58:19.192Z,102294.19
2022-10-19T03:00:45.777Z,102298.31
2022-10-19T03:03:12.518Z,102291.78
2022-10-19T03:05:39.080Z,102291.00
2022-10-19T03:08:05.510Z,102286.03
2022-10-19T03:10:32.070Z,102283.63
2022-10-19T03:12:58.650Z,102292.25
2022-10-19T03:15:28.994Z,102287.75
2022-10-19T03:17:55.966Z,102300.06
2022-10-19T03:20:22.610Z,102297.66
2022-10-19T03:22:49.430Z,102301.00
2022-10-19T03:25:16.163Z,102306.28
2022-10-19T03:27:42.731Z,102311.69
2022-10-19T03:30:09.617Z,102319.03
2022-10-19T03:32:36.142Z,102315.03
2022-10-19T03:35:02.702Z,102322.38
2022-10-19T03:37:29.244Z,102322.84
2022-10-19T03:39:55.836Z,102323.66
2022-10-19T03:42:22.360Z,102318.38
2022-10-19T03:44:48.996Z,102325.69
2022-10-19T03:47:15.537Z,102326.63
2022-10-19T03:49:43.537Z,102326.63
2022-10-19T03:52:10.246Z,102328.72
2022-10-19T03:54:37.055Z,102335.25
2022-10-19T03:57:03.739Z,102332.06
2022-10-19T03:59:30.361Z,102340.66
2022-10-19T04:01:56.996Z,102342.38
2022-10-19T04:04:23.546Z,102349.41
2022-10-19T04:06:50.890Z,102349.09
2022-10-19T04:09:19.554Z,102348.59
2022-10-19T04:11:46.488Z,102348.28
2022-10-19T04:14:22.752Z,102362.63
2022-10-19T04:16:58.949Z,102354.94
2022-10-19T04:19:25.411Z,102357.16
2022-10-19T04:21:51.832Z,102365.63
2022-10-19T04:24:19.250Z,102366.56
2022-10-19T04:26:49.575Z,102366.09
2022-10-19T04:29:18.912Z,102369.44
2022-10-19T04:31:45.605Z,102372.31
2022-10-19T04:34:12.359Z,102365.78
2022-10-19T04:36:38.833Z,102371.53
2022-10-19T04:39:06.211Z,102366.72
2022-10-19T04:41:33.233Z,102369.25
2022-10-19T04:44:02.184Z,102363.38
2022-10-19T04:46:29.846Z,102371.66
2022-10-19T04:48:57.154Z,102366.84
2022-10-19T04:51:24.875Z,102375.00
2022-10-19T04:53:52.501Z,102361.22
2022-10-19T04:56:23.763Z,102368.44
2022-10-19T04:58:50.158Z,102368.56
2022-10-19T05:01:21.410Z,102377.50
2022-10-19T05:03:52.477Z,102375.56
2022-10-19T05:06:18.897Z,102365.38
2022-10-19T05:08:45.293Z,102363.09
2022-10-19T05:11:14.301Z,102369.63
2022-10-19T05:13:41.828Z,102372.84
2022-10-19T05:16:12.192Z,102382.69
2022-10-19T05:18:39.209Z,102379.50
2022-10-19T05:21:07.345Z,102374.59
2022-10-19T05:23:34.580Z,102370.56
2022-10-19T05:26:07.024Z,102370.56
2022-10-19T05:28:34.271Z,102369.78
2022-10-19T05:31:11.408Z,102362.09
2022-10-19T05:33:38.911Z,102370.69
2022-10-19T05:36:13.675Z,102375.63
2022-10-19T05:38:40.108Z,102366.03
2022-10-19T05:41:06.686Z,102365.56
2022-10-19T05:43:33.360Z,102375.09
2022-10-19T05:46:08.031Z,102370.03
2022-10-19T05:48:35.040Z,102381.50
2022-10-19T05:51:02.846Z,102388.84
2022-10-19T05:53:29.708Z,102377.03
2022-10-19T05:55:56.176Z,102379.56
2022-10-19T05:58:23.147Z,102370.94
2022-10-19T06:00:54.767Z,102370.94
2022-10-19T06:03:22.257Z,102377.50
2022-10-19T06:05:49.886Z,102365.34
2022-10-19T06:08:17.454Z,102371.53
2022-10-19T06:10:44.569Z,102371.09
2022-10-19T06:13:11.825Z,102387.38
2022-10-19T06:15:40.125Z,102375.88
2022-10-19T06:18:08.576Z,102380.00
2022-10-19T06:20:40.169Z,102381.75
2022-10-19T06:23:07.394Z,102385.75
2022-10-19T06:25:35.511Z,102386.56
2022-10-19T06:28:02.197Z,102386.69
2022-10-19T06:30:28.829Z,102384.97
2022-10-19T06:32:55.446Z,102389.09
2022-10-19T06:35:22.066Z,102383.34
2022-10-19T06:37:48.527Z,102375.47
2022-10-19T06:40:15.167Z,102381.41
2022-10-19T06:42:41.854Z,102399.31
2022-10-19T06:45:09.660Z,102392.31
2022-10-19T06:47:37.634Z,102382.81
2022-10-19T06:50:05.539Z,102401.72
2022-10-19T06:52:33.230Z,102398.28
2022-10-19T06:54:59.883Z,102391.94
2022-10-19T06:57:26.622Z,102405.03
2022-10-19T06:59:53.768Z,102397.22
2022-10-19T07:02:20.900Z,102398.03
2022-10-19T07:04:47.414Z,102376.94
2022-10-19T07:07:13.922Z,102380.84
2022-10-19T07:09:40.394Z,102374.28
2022-10-19T07:12:06.959Z,102379.22
2022-10-19T07:14:38.559Z,102383.34
2022-10-19T07:17:08.329Z,102381.75
2022-10-19T07:19:34.899Z,102373.72
2022-10-19T07:22:01.643Z,102386.56
2022-10-19T07:24:28.479Z,102397.03
2022-10-19T07:26:55.827Z,102393.34
2022-10-19T07:29:22.499Z,102393.22
2022-10-19T07:31:49.517Z,102394.63
2022-10-19T07:34:16.999Z,102385.47
2022-10-19T07:36:48.259Z,102392.69
2022-10-19T07:39:19.508Z,102389.25
2022-10-19T07:41:47.433Z,102390.50
2022-10-19T07:44:15.892Z,102404.94
2022-10-19T07:46:43.063Z,102426.59
2022-10-19T07:49:19.058Z,102418.38
2022-10-19T07:51:46.854Z,102434.06
2022-10-19T07:54:13.729Z,102436.47
2022-10-19T07:56:40.457Z,102438.53
2022-10-19T07:59:07.001Z,102432.47
2022-10-19T08:01:38.290Z,102430.72
2022-10-19T08:06:51.406Z,102427.97
2022-10-19T08:09:50.965Z,102423.88
2022-10-19T08:12:05.889Z,102438.88
2022-10-19T08:14:32.678Z,102429.25
2022-10-19T08:17:00.196Z,102437.06
2022-10-19T08:19:26.832Z,102434.41
2022-10-19T08:21:53.407Z,102441.28
2022-10-19T08:24:20.746Z,102449.41
2022-10-19T08:26:47.589Z,102446.56
2022-10-19T08:29:17.041Z,102456.78
2022-10-19T08:31:44.870Z,102448.50
2022-10-19T08:34:12.685Z,102458.72
2022-10-19T08:36:39.481Z,102456.31
2022-10-19T08:39:08.198Z,102455.84
2022-10-19T08:41:41.032Z,102463.16
2022-10-19T08:44:19.967Z,102455.38
2022-10-19T08:46:56.263Z,102459.84
2022-10-19T08:49:25.789Z,102465.13
2022-10-19T08:52:00.713Z,102463.84
2022-10-19T08:54:56.601Z,102468.78
2022-10-19T08:57:50.518Z,102472.00
2022-10-19T09:00:59.180Z,102469.59
2022-10-19T09:03:54.520Z,102468.66
2022-10-19T09:06:37.540Z,102468.22
2022-10-19T09:09:05.827Z,102467.75
2022-10-19T09:11:37.704Z,102472.19
2022-10-19T09:14:13.749Z,102477.47
2022-10-19T09:16:40.149Z,102473.81
2022-10-19T09:19:21.900Z,102470.03
2022-10-19T09:22:16.825Z,102477.34
2022-10-19T09:24:50.843Z,102467.47
2022-10-19T09:27:20.725Z,102482.84
2022-10-19T09:29:58.422Z,102479.50
2022-10-19T09:32:37.349Z,102476.19
2022-10-19T09:35:14.843Z,102472.38
2022-10-19T09:37:46.867Z,102475.56
2022-10-19T09:40:20.486Z,102468.69
2022-10-19T09:42:50.991Z,102454.81
2022-10-19T09:45:32.109Z,102473.72
2022-10-19T09:48:07.209Z,102479.78
2022-10-19T09:50:43.476Z,102475.66
2022-10-19T09:53:19.291Z,102473.59
2022-10-19T09:55:51.167Z,102479.19
2022-10-19T09:58:19.555Z,102480.81
2022-10-19T10:00:50.488Z,102480.34
2022-10-19T10:03:40.773Z,102478.72
2022-10-19T10:06:10.029Z,102470.94
2022-10-19T10:08:44.322Z,102471.41
2022-10-19T10:11:25.285Z,102483.53
2022-10-19T10:13:54.377Z,102482.59
2022-10-19T10:16:24.079Z,102490.75
2022-10-19T10:19:06.874Z,102485.00
2022-10-19T10:21:45.393Z,102486.16
2022-10-19T10:24:11.771Z,102491.91
2022-10-19T10:26:44.187Z,102491.44
2022-10-19T10:29:39.423Z,102488.22
2022-10-19T10:32:07.504Z,102503.25
2022-10-19T10:34:51.787Z,102504.50
2022-10-19T10:37:24.257Z,102502.78
2022-10-19T10:39:57.896Z,102499.91
2022-10-19T10:42:44.727Z,102502.00
2022-10-19T10:45:31.283Z,102497.03
2022-10-19T10:48:14.857Z,102495.28
2022-10-19T10:50:41.502Z,102498.16
2022-10-19T10:53:35.446Z,102499.13
2022-10-19T10:56:02.471Z,102494.03
2022-10-19T10:58:38.169Z,102501.38
2022-10-19T11:01:13.572Z,102489.44
2022-10-19T11:03:46.148Z,102496.75
2022-10-19T11:06:14.693Z,102493.41
2022-10-19T11:08:52.211Z,102489.28
2022-10-19T11:11:24.763Z,102480.22
2022-10-19T11:13:57.359Z,102481.00
2022-10-19T11:16:30.576Z,102486.28
2022-10-19T11:19:07.280Z,102471.13
2022-10-19T11:22:08.964Z,102478.47
2022-10-19T11:24:49.775Z,102473.06
2022-10-19T11:27:37.878Z,102459.50
2022-10-19T11:30:12.547Z,102467.63
2022-10-19T11:32:56.952Z,102456.47
2022-10-19T11:35:36.515Z,102465.09
2022-10-19T11:38:24.168Z,102456.00
2022-10-19T11:41:18.195Z,102458.41
2022-10-19T11:44:13.225Z,102441.16
2022-10-19T11:47:08.063Z,102437.03
2022-10-19T11:49:55.515Z,102436.38
2022-10-19T11:52:32.934Z,102429.69
2022-10-19T11:55:12.119Z,102432.91
2022-10-19T11:57:48.110Z,102420.13
2022-10-19T12:00:37.539Z,102420.44
2022-10-19T12:03:23.643Z,102417.56
2022-10-19T12:06:15.054Z,102425.41
2022-10-19T12:08:55.234Z,102408.16
2022-10-19T12:11:27.641Z,102402.66
2022-10-19T12:14:02.793Z,102390.69
2022-10-19T12:16:42.913Z,102385.41
2022-10-19T12:19:19.370Z,102385.09
2022-10-19T12:21:46.476Z,102380.63
2022-10-19T12:24:20.281Z,102388.28
2022-10-19T12:26:47.792Z,102379.66
2022-10-19T12:29:21.708Z,102368.53
2022-10-19T12:31:49.280Z,102368.53
2022-10-19T12:34:31.481Z,102366.44
2022-10-19T12:37:34.263Z,102377.94
2022-10-19T12:40:13.341Z,102372.50
2022-10-19T12:42:52.753Z,102377.16
2022-10-19T12:45:28.519Z,102375.38
2022-10-19T12:48:14.329Z,102377.94
2022-10-19T12:50:50.119Z,102378.72
2022-10-19T12:53:34.517Z,102362.44
2022-10-19T12:56:02.186Z,102355.75
2022-10-19T12:58:41.552Z,102363.09
2022-10-19T13:01:21.201Z,102361.50
2022-10-19T13:03:51.188Z,102361.50
2022-10-19T13:06:23.681Z,102350.00
2022-10-19T13:08:53.093Z,102362.31
2022-10-19T13:11:20.305Z,102353.69
2022-10-19T13:14:05.405Z,102360.69
2022-10-19T13:16:37.677Z,102360.22
2022-10-19T13:19:13.188Z,102362.31
2022-10-19T13:21:45.760Z,102358.63
2022-10-19T13:24:26.864Z,102352.53
2022-10-19T13:27:02.634Z,102354.16
2022-10-19T13:29:41.210Z,102348.41
2022-10-19T13:32:36.716Z,102340.25
2022-10-19T13:35:25.036Z,102343.59
2022-10-19T13:38:10.217Z,102342.78
2022-10-19T13:40:58.592Z,102340.72
2022-10-19T13:43:29.345Z,102346.47
2022-10-19T13:46:11.248Z,102345.66
2022-10-19T13:48:40.716Z,102339.91
2022-10-19T13:51:33.428Z,102343.25
2022-10-19T13:54:26.240Z,102338.34
2022-10-19T13:57:15.082Z,102335.94
2022-10-19T13:59:54.886Z,102338.81
2022-10-19T14:02:33.659Z,102339.13
2022-10-19T14:05:12.396Z,102337.50
2022-10-19T14:08:17.786Z,102322.81
2022-10-19T14:11:00.679Z,102323.97
2022-10-19T14:13:28.501Z,102324.91
2022-10-19T14:15:57.756Z,102318.22
2022-10-19T14:18:28.065Z,102320.28
2022-10-19T14:21:02.229Z,102319.00
2022-10-19T14:23:29.997Z,102325.38
2022-10-19T14:26:03.336Z,102320.44
2022-10-19T14:28:30.785Z,102317.22
2022-10-19T14:31:00.808Z,102320.78
2022-10-19T14:33:29.746Z,102315.81
2022-10-19T14:35:58.332Z,102311.66
2022-10-19T14:38:43.478Z,102310.53
2022-10-19T14:41:28.159Z,102310.06
2022-10-19T14:43:56.560Z,102307.66
2022-10-19T14:46:31.985Z,102317.41
2022-10-19T14:49:02.540Z,102319.00
2022-10-19T14:51:54.771Z,102318.69
2022-10-19T14:54:38.864Z,102313.88
2022-10-19T14:57:26.407Z,102312.63
2022-10-19T15:00:03.167Z,102304.00
2022-10-19T15:02:59.865Z,102305.28
2022-10-19T15:05:36.088Z,102304.00
2022-10-19T15:08:14.769Z,102305.28
2022-10-19T15:10:45.677Z,102298.56
2022-10-19T15:13:25.136Z,102296.97
2022-10-19T15:15:53.538Z,102302.72
2022-10-19T15:18:43.956Z,102299.53
2022-10-19T15:21:20.004Z,102306.88
2022-10-19T15:23:49.040Z,102306.06
2022-10-19T15:26:24.335Z,102308.94
2022-10-19T15:28:52.047Z,102311.00
2022-10-19T15:31:27.515Z,102302.06
2022-10-19T15:33:58.945Z,102296.81
2022-10-19T15:36:27.436Z,102290.59
2022-10-19T15:39:18.073Z,102296.81
2022-10-19T15:41:51.478Z,102284.97
2022-10-19T15:44:50.167Z,102289.25
2022-10-19T15:47:18.046Z,102290.84
2022-10-19T15:49:44.642Z,102299.13
2022-10-19T15:52:19.245Z,102291.00
2022-10-19T15:54:53.011Z,102294.34
2022-10-19T15:57:35.907Z,102285.41
2022-10-19T16:00:13.244Z,102283.78
2022-10-19T16:02:39.750Z,102297.84
2022-10-19T16:07:40.116Z,102293.50
2022-10-19T16:10:08.176Z,102295.59
2022-10-19T16:12:34.655Z,102286.78
2022-10-19T16:15:01.185Z,102287.56
2022-10-19T16:17:27.720Z,102290.13
2022-10-19T16:19:54.245Z,102289.78
2022-10-19T16:22:20.825Z,102300.97
2022-10-19T16:24:47.288Z,102293.63
2022-10-19T16:27:17.020Z,102295.03
2022-10-19T16:29:44.568Z,102291.38
2022-10-19T16:32:11.330Z,102293.88
2022-10-19T16:34:38.142Z,102284.16
2022-10-19T16:37:06.863Z,102285.88
2022-10-19T16:39:34.209Z,102286.03
2022-10-19T16:42:00.679Z,102268.81
2022-10-19T16:44:27.377Z,102275.50
2022-10-19T16:46:56.716Z,102268.28
2022-10-19T16:49:23.405Z,102273.72
2022-10-19T16:51:53.249Z,102275.78
2022-10-19T16:54:23.292Z,102280.06
2022-10-19T16:56:49.886Z,102282.13
2022-10-19T16:59:18.416Z,102277.34
2022-10-19T17:01:46.422Z,102277.81
2022-10-19T17:04:15.182Z,102268.84
2022-10-19T17:06:42.157Z,102280.00
2022-10-19T17:09:40.815Z,102270.72
2022-10-19T17:11:55.788Z,102281.09
2022-10-19T17:14:22.302Z,102275.03
2022-10-19T17:16:48.886Z,102268.47
2022-10-19T17:19:15.452Z,102268.59
2022-10-19T17:21:42.488Z,102269.06
2022-10-19T17:24:18.651Z,102271.63
2022-10-19T17:26:49.474Z,102273.81
2022-10-19T17:29:16.092Z,102270.63
2022-10-19T17:31:42.788Z,102263.88
2022-10-19T17:34:09.865Z,102278.22
2022-10-19T17:39:25.708Z,102276.75
2022-10-19T17:41:57.502Z,102274.34
2022-10-19T17:44:24.100Z,102285.97
2022-10-19T17:46:50.718Z,102277.03
2022-10-19T17:49:18.719Z,102281.94
2022-10-19T17:51:45.260Z,102282.91
2022-10-19T17:54:13.626Z,102285.41
2022-10-19T17:56:41.156Z,102280.63
2022-10-19T17:59:09.010Z,102281.69
2022-10-19T18:01:37.143Z,102282.38
2022-10-19T18:04:04.593Z,102284.97
2022-10-19T18:06:33.548Z,102292.00
2022-10-19T18:09:01.792Z,102291.31
2022-10-19T18:11:38.684Z,102295.09
2022-10-19T18:14:07.937Z,102291.00
2022-10-19T18:16:37.656Z,102291.22
2022-10-19T18:19:06.018Z,102294.56
2022-10-19T18:21:41.081Z,102301.09
2022-10-19T18:24:15.143Z,102310.16
2022-10-19T18:26:43.035Z,102304.22
2022-10-19T18:29:16.490Z,102314.44
2022-10-19T18:31:44.043Z,102309.63
2022-10-19T18:34:14.978Z,102310.53
2022-10-19T18:36:41.705Z,102307.34
2022-10-19T18:39:08.521Z,102311.13
2022-10-19T18:41:35.022Z,102318.13
2022-10-19T18:44:05.123Z,102311.72
2022-10-19T18:46:36.520Z,102312.19
2022-10-19T18:49:06.739Z,102316.75
2022-10-19T18:51:33.557Z,102312.41
2022-10-19T18:54:00.090Z,102307.13
2022-10-19T18:56:29.335Z,102308.75
2022-10-19T18:58:56.765Z,102306.47
2022-10-19T19:01:26.757Z,102302.31
2022-10-19T19:03:55.946Z,102300.06
2022-10-19T19:06:33.642Z,102296.72
2022-10-19T19:09:01.735Z,102296.16
2022-10-19T19:11:37.091Z,102297.78
2022-10-19T19:14:17.091Z,102286.06
2022-10-19T19:16:44.915Z,102294.22
2022-10-19T19:19:13.311Z,102288.16
2022-10-19T19:21:44.372Z,102287.81
2022-10-19T19:24:14.526Z,102282.22
2022-10-19T19:26:46.670Z,102285.19
2022-10-19T19:29:13.429Z,102291.25
2022-10-19T19:31:40.131Z,102285.19
2022-10-19T19:34:09.749Z,102282.88
2022-10-19T19:36:38.130Z,102273.97
2022-10-19T19:39:05.206Z,102274.31
2022-10-19T19:41:34.117Z,102270.31
2022-10-19T19:44:00.732Z,102277.75
2022-10-19T19:46:27.324Z,102281.84
2022-10-19T19:49:06.756Z,102280.72
2022-10-19T19:51:33.791Z,102270.31
2022-10-19T19:54:00.487Z,102273.50
2022-10-19T19:56:27.170Z,102270.31
2022-10-19T19:58:56.140Z,102261.38
2022-10-19T20:01:23.127Z,102265.97
2022-10-19T20:03:49.717Z,102252.69
2022-10-19T20:06:22.037Z,102250.16
2022-10-19T20:08:51.835Z,102241.34
2022-10-19T20:11:18.426Z,102243.75
2022-10-19T20:13:45.700Z,102230.81
2022-10-19T20:16:26.705Z,102230.00
2022-10-19T20:19:00.919Z,102221.88
2022-10-19T20:21:27.699Z,102225.53
2022-10-19T20:23:54.201Z,102212.25
2022-10-19T20:26:23.991Z,102228.50
2022-10-19T20:28:51.506Z,102221.31
2022-10-19T20:31:18.321Z,102222.13
2022-10-19T20:33:47.261Z,102222.22
2022-10-19T20:36:19.802Z,102217.78
2022-10-19T20:38:57.798Z,102226.03
2022-10-19T20:41:27.660Z,102222.78
2022-10-19T20:43:55.516Z,102224.53
2022-10-19T20:46:27.557Z,102225.84
2022-10-19T20:49:02.605Z,102225.84
2022-10-19T20:51:47.771Z,102219.44
2022-10-19T20:54:14.493Z,102208.22
2022-10-19T20:56:42.033Z,102222.28
2022-10-19T20:59:16.823Z,102215.53
2022-10-19T21:01:44.927Z,102210.19
2022-10-19T21:04:13.911Z,102227.44
2022-10-19T21:06:45.718Z,102207.41
2022-10-19T21:09:18.889Z,102202.63
2022-10-19T21:11:47.421Z,102205.13
2022-10-19T21:14:28.314Z,102201.47
2022-10-19T21:17:00.050Z,102191.84
2022-10-19T21:19:29.164Z,102182.13
2022-10-19T21:22:01.555Z,102182.47
2022-10-19T21:24:35.671Z,102194.38
2022-10-19T21:27:05.681Z,102186.25
2022-10-19T21:29:32.334Z,102188.78
2022-10-19T21:31:59.060Z,102192.09
2022-10-19T21:34:28.110Z,102182.47
2022-10-19T21:36:55.578Z,102181.19
2022-10-19T21:39:36.356Z,102167.78
2022-10-19T21:42:03.076Z,102175.91
2022-10-19T21:44:29.634Z,102177.66
2022-10-19T21:46:56.280Z,102175.69
2022-10-19T21:49:22.878Z,102169.97
2022-10-19T21:51:53.885Z,102175.69
2022-10-19T21:54:26.470Z,102165.97
2022-10-19T21:56:53.567Z,102176.59
2022-10-19T21:59:20.210Z,102162.88
2022-10-19T22:01:46.913Z,102168.25
2022-10-19T22:04:16.035Z,102177.63
2022-10-19T22:06:43.414Z,102173.97
2022-10-19T22:09:13.915Z,102185.03
2022-10-19T22:11:40.730Z,102175.34
2022-10-19T22:14:07.759Z,102177.81
2022-10-19T22:16:36.728Z,102173.84
2022-10-19T22:19:05.067Z,102170.63
2022-10-19T22:21:33.726Z,102173.56
2022-10-19T22:24:06.601Z,102170.81
2022-10-19T22:26:39.398Z,102176.53
2022-10-19T22:29:07.159Z,102181.34
2022-10-19T22:31:34.845Z,102176.53
2022-10-19T22:34:03.693Z,102182.25
2022-10-19T22:36:30.402Z,102174.69
2022-10-19T22:38:57.015Z,102175.84
2022-10-19T22:41:23.580Z,102169.31
2022-10-19T22:43:50.107Z,102165.34
2022-10-19T22:46:16.678Z,102163.91
2022-10-19T22:48:43.702Z,102154.09
2022-10-19T22:51:10.303Z,102156.63
2022-10-19T22:53:36.873Z,102150.91
2022-10-19T22:56:04.131Z,102142.00
2022-10-19T22:58:30.828Z,102146.09
2022-10-19T23:01:15.200Z,102138.41
2022-10-19T23:03:42.087Z,102131.66
2022-10-19T23:06:11.016Z,102126.84
2022-10-19T23:08:38.039Z,102123.66
2022-10-19T23:11:05.187Z,102120.00
2022-10-19T23:13:31.878Z,102113.13
2022-10-19T23:15:58.422Z,102111.16
2022-10-19T23:18:25.206Z,102117.22
2022-10-19T23:20:57.407Z,102109.94
2022-10-19T23:23:24.757Z,102111.63
2022-10-19T23:26:01.329Z,102114.91
2022-10-19T23:28:29.464Z,102110.94
2022-10-19T23:30:59.018Z,102096.41
2022-10-19T23:33:26.275Z,102096.72
2022-10-19T23:35:52.934Z,102096.06
2022-10-19T23:38:19.455Z,102103.34
2022-10-19T23:40:46.203Z,102091.25
2022-10-19T23:43:12.905Z,102096.94
2022-10-19T23:45:39.618Z,102096.59
2022-10-19T23:48:06.456Z,102097.06
2022-10-19T23:50:33.077Z,102085.47
2022-10-19T23:52:59.624Z,102088.22
2022-10-19T23:55:26.389Z,102095.22
2022-10-19T23:57:52.886Z,102100.91
